sensor_id;sensor_type;location;lat;lon;timestamp;pressure;altitude;pressure_sealevel;temperature;humidity
37648;BME280;23490;53.656;10.076;2023-09-12T00:01:36;97394.69;;;-145.95;89.66
37648;BME280;23490;53.656;10.076;2023-09-12T00:04:01;97336.91;;;-145.95;89.38
37648;BME280;23490;53.656;10.076;2023-09-12T00:06:26;97431.84;;;-145.95;91.05
37648;BME280;23490;53.656;10.076;2023-09-12T00:08:52;97365.78;;;-145.95;90.83
37648;BME280;23490;53.656;10.076;2023-09-12T00:11:21;97378.19;;;-145.95;91.45
37648;BME280;23490;53.656;10.076;2023-09-12T00:13:46;97369.91;;;-145.95;91.83
37648;BME280;23490;53.656;10.076;2023-09-12T00:16:11;97372.00;;;-145.95;93.55
37648;BME280;23490;53.656;10.076;2023-09-12T00:18:38;97382.31;;;-145.95;93.40
37648;BME280;23490;53.656;10.076;2023-09-12T00:21:03;97423.59;;;-145.95;93.68
37648;BME280;23490;53.656;10.076;2023-09-12T00:23:29;97448.34;;;-145.95;94.56
37648;BME280;23490;53.656;10.076;2023-09-12T00:25:56;97398.81;;;-145.95;95.17
37648;BME280;23490;53.656;10.076;2023-09-12T00:28:21;97454.56;;;-145.95;96.84
37648;BME280;23490;53.656;10.076;2023-09-12T00:30:47;97415.34;;;-145.95;96.64
37648;BME280;23490;53.656;10.076;2023-09-12T00:33:12;97429.78;;;-145.95;96.59
37648;BME280;23490;53.656;10.076;2023-09-12T00:35:38;97435.97;;;-145.95;97.14
37648;BME280;23490;53.656;10.076;2023-09-12T00:38:03;97415.34;;;-145.95;95.71
37648;BME280;23490;53.656;10.076;2023-09-12T00:40:29;97390.56;;;-145.95;98.01
37648;BME280;23490;53.656;10.076;2023-09-12T00:42:55;97394.69;;;-145.95;97.76
37648;BME280;23490;53.656;10.076;2023-09-12T00:45:21;97456.63;;;-145.95;98.47
37648;BME280;23490;53.656;10.076;2023-09-12T00:47:46;97456.63;;;-145.95;98.52
37648;BME280;23490;53.656;10.076;2023-09-12T00:50:13;97493.75;;;-145.95;98.35
37648;BME280;23490;53.656;10.076;2023-09-12T00:52:42;97464.88;;;-145.95;98.25
37648;BME280;23490;53.656;10.076;2023-09-12T00:55:08;97506.16;;;-145.95;97.92
37648;BME280;23490;53.656;10.076;2023-09-12T00:57:35;97502.03;;;-145.95;97.87
37648;BME280;23490;53.656;10.076;2023-09-12T01:00:04;97440.09;;;-145.95;97.88
37648;BME280;23490;53.656;10.076;2023-09-12T01:02:43;97431.84;;;-145.95;98.17
37648;BME280;23490;53.656;10.076;2023-09-12T01:05:10;97456.63;;;-145.95;98.81
37648;BME280;23490;53.656;10.076;2023-09-12T01:07:37;97440.09;;;-145.95;98.49
37648;BME280;23490;53.656;10.076;2023-09-12T01:10:04;97458.69;;;-145.95;98.56
37648;BME280;23490;53.656;10.076;2023-09-12T01:12:30;97464.88;;;-145.95;99.15
37648;BME280;23490;53.656;10.076;2023-09-12T01:14:56;97440.09;;;-145.95;99.05
37648;BME280;23490;53.656;10.076;2023-09-12T01:17:22;97471.06;;;-145.95;99.02
37648;BME280;23490;53.656;10.076;2023-09-12T01:19:48;97464.88;;;-145.95;98.22
37648;BME280;23490;53.656;10.076;2023-09-12T01:22:29;97444.22;;;-145.95;98.25
37648;BME280;23490;53.656;10.076;2023-09-12T01:25:08;97464.88;;;-145.95;98.42
37648;BME280;23490;53.656;10.076;2023-09-12T01:27:47;97454.56;;;-145.95;97.79
37648;BME280;23490;53.656;10.076;2023-09-12T01:30:16;97502.03;;;-145.95;99.15
37648;BME280;23490;53.656;10.076;2023-09-12T01:32:42;97495.81;;;-145.95;99.92
37648;BME280;23490;53.656;10.076;2023-09-12T01:35:08;97514.41;;;-145.95;100.00
37648;BME280;23490;53.656;10.076;2023-09-12T01:37:34;97464.88;;;-145.95;100.00
37648;BME280;23490;53.656;10.076;2023-09-12T01:40:00;97526.78;;;-145.95;99.96
37648;BME280;23490;53.656;10.076;2023-09-12T01:42:30;97514.41;;;-145.95;99.85
37648;BME280;23490;53.656;10.076;2023-09-12T01:45:01;97530.91;;;-145.95;100.00
37648;BME280;23490;53.656;10.076;2023-09-12T01:47:27;97532.97;;;-145.95;99.73
37648;BME280;23490;53.656;10.076;2023-09-12T01:49:56;97520.59;;;-145.95;99.62
37648;BME280;23490;53.656;10.076;2023-09-12T01:52:23;97489.63;;;-145.95;99.98
37648;BME280;23490;53.656;10.076;2023-09-12T01:54:50;97539.19;;;-145.95;100.00
37648;BME280;23490;53.656;10.076;2023-09-12T01:57:17;97512.34;;;-145.95;100.00
37648;BME280;23490;53.656;10.076;2023-09-12T01:59:49;97578.41;;;-145.95;100.00
37648;BME280;23490;53.656;10.076;2023-09-12T02:02:15;97586.66;;;-145.95;100.00
37648;BME280;23490;53.656;10.076;2023-09-12T02:04:51;97539.19;;;-145.95;100.00
37648;BME280;23490;53.656;10.076;2023-09-12T02:07:19;97563.94;;;-145.95;100.00
37648;BME280;23490;53.656;10.076;2023-09-12T02:09:45;97518.53;;;-145.95;100.00
37648;BME280;23490;53.656;10.076;2023-09-12T02:12:11;97601.09;;;-145.95;100.00
37648;BME280;23490;53.656;10.076;2023-09-12T02:14:36;97549.50;;;-145.95;100.00
37648;BME280;23490;53.656;10.076;2023-09-12T02:17:01;97561.88;;;-145.95;100.00
37648;BME280;23490;53.656;10.076;2023-09-12T02:19:27;97535.03;;;-145.95;100.00
37648;BME280;23490;53.656;10.076;2023-09-12T02:21:53;97518.53;;;-145.95;100.00
37648;BME280;23490;53.656;10.076;2023-09-12T02:24:21;97537.09;;;-145.95;100.00
37648;BME280;23490;53.656;10.076;2023-09-12T02:26:47;97535.03;;;-145.95;100.00
37648;BME280;23490;53.656;10.076;2023-09-12T02:29:12;97535.03;;;-145.95;100.00
37648;BME280;23490;53.656;10.076;2023-09-12T02:31:37;97580.47;;;-145.95;100.00
37648;BME280;23490;53.656;10.076;2023-09-12T02:34:03;97555.69;;;-145.95;100.00
37648;BME280;23490;53.656;10.076;2023-09-12T02:36:28;97535.03;;;-145.95;100.00
37648;BME280;23490;53.656;10.076;2023-09-12T02:38:54;97547.44;;;-145.95;100.00
37648;BME280;23490;53.656;10.076;2023-09-12T02:41:19;97530.91;;;-145.95;100.00
37648;BME280;23490;53.656;10.076;2023-09-12T02:43:45;97535.03;;;-145.95;100.00
37648;BME280;23490;53.656;10.076;2023-09-12T02:46:10;97543.31;;;-145.95;100.00
37648;BME280;23490;53.656;10.076;2023-09-12T02:48:35;97530.91;;;-145.95;100.00
37648;BME280;23490;53.656;10.076;2023-09-12T02:51:01;97568.06;;;-145.95;100.00
37648;BME280;23490;53.656;10.076;2023-09-12T02:53:26;97572.19;;;-145.95;100.00
37648;BME280;23490;53.656;10.076;2023-09-12T02:55:52;97543.31;;;-145.95;100.00
37648;BME280;23490;53.656;10.076;2023-09-12T02:58:19;97553.63;;;-145.95;100.00
37648;BME280;23490;53.656;10.076;2023-09-12T03:00:45;97547.44;;;-145.95;100.00
37648;BME280;23490;53.656;10.076;2023-09-12T03:03:10;97522.66;;;-145.95;100.00
37648;BME280;23490;53.656;10.076;2023-09-12T03:05:36;97563.94;;;-145.95;100.00
37648;BME280;23490;53.656;10.076;2023-09-12T03:08:01;97551.56;;;-145.95;100.00
37648;BME280;23490;53.656;10.076;2023-09-12T03:10:28;97528.84;;;-145.95;100.00
37648;BME280;23490;53.656;10.076;2023-09-12T03:12:54;97502.03;;;-145.95;100.00
37648;BME280;23490;53.656;10.076;2023-09-12T03:15:19;97551.56;;;-145.95;100.00
37648;BME280;23490;53.656;10.076;2023-09-12T03:17:45;97551.56;;;-145.95;100.00
37648;BME280;23490;53.656;10.076;2023-09-12T03:20:11;97555.69;;;-145.95;100.00
37648;BME280;23490;53.656;10.076;2023-09-12T03:22:36;97526.78;;;-145.95;100.00
37648;BME280;23490;53.656;10.076;2023-09-12T03:25:03;97506.16;;;-145.95;100.00
37648;BME280;23490;53.656;10.076;2023-09-12T03:27:29;97584.59;;;-145.95;100.00
37648;BME280;23490;53.656;10.076;2023-09-12T03:29:54;97485.50;;;-145.95;100.00
37648;BME280;23490;53.656;10.076;2023-09-12T03:32:20;97524.72;;;-145.95;100.00
37648;BME280;23490;53.656;10.076;2023-09-12T03:34:45;97561.88;;;-145.95;100.00
37648;BME280;23490;53.656;10.076;2023-09-12T03:37:11;97518.53;;;-145.95;100.00
37648;BME280;23490;53.656;10.076;2023-09-12T03:39:36;97566.00;;;-145.95;100.00
37648;BME280;23490;53.656;10.076;2023-09-12T03:42:01;97563.94;;;-145.95;100.00
37648;BME280;23490;53.656;10.076;2023-09-12T03:44:27;97584.59;;;-145.95;100.00
37648;BME280;23490;53.656;10.076;2023-09-12T03:46:52;97576.31;;;-145.95;100.00
37648;BME280;23490;53.656;10.076;2023-09-12T03:49:18;97559.81;;;-145.95;100.00
37648;BME280;23490;53.656;10.076;2023-09-12T03:51:46;97510.28;;;-145.95;100.00
37648;BME280;23490;53.656;10.076;2023-09-12T03:54:11;97601.09;;;-145.95;100.00
37648;BME280;23490;53.656;10.076;2023-09-12T03:56:36;97675.41;;;-145.95;100.00
37648;BME280;23490;53.656;10.076;2023-09-12T03:59:02;97609.34;;;-145.95;100.00
37648;BME280;23490;53.656;10.076;2023-09-12T04:01:28;97568.06;;;-145.95;100.00
37648;BME280;23490;53.656;10.076;2023-09-12T04:03:53;97630.00;;;-145.95;100.00
37648;BME280;23490;53.656;10.076;2023-09-12T04:06:19;97646.50;;;-145.95;100.00
37648;BME280;23490;53.656;10.076;2023-09-12T04:08:44;97642.38;;;-145.95;100.00
37648;BME280;23490;53.656;10.076;2023-09-12T04:11:10;97559.81;;;-145.95;100.00
37648;BME280;23490;53.656;10.076;2023-09-12T04:13:36;97566.00;;;-145.95;100.00
37648;BME280;23490;53.656;10.076;2023-09-12T04:16:02;97609.34;;;-145.95;100.00
37648;BME280;23490;53.656;10.076;2023-09-12T04:18:28;97588.72;;;-145.95;100.00
37648;BME280;23490;53.656;10.076;2023-09-12T04:20:53;97596.97;;;-145.95;100.00
37648;BME280;23490;53.656;10.076;2023-09-12T04:23:21;97650.63;;;-145.95;100.00
37648;BME280;23490;53.656;10.076;2023-09-12T04:25:47;97630.00;;;-145.95;100.00
37648;BME280;23490;53.656;10.076;2023-09-12T04:28:12;97592.84;;;-145.95;100.00
37648;BME280;23490;53.656;10.076;2023-09-12T04:30:38;97625.88;;;-145.95;100.00
37648;BME280;23490;53.656;10.076;2023-09-12T04:33:05;97630.00;;;-145.95;100.00
37648;BME280;23490;53.656;10.076;2023-09-12T04:35:35;97638.25;;;-145.95;100.00
37648;BME280;23490;53.656;10.076;2023-09-12T04:38:01;97646.50;;;-145.95;100.00
37648;BME280;23490;53.656;10.076;2023-09-12T04:40:27;97613.47;;;-145.95;100.00
37648;BME280;23490;53.656;10.076;2023-09-12T04:42:53;97605.22;;;-145.95;100.00
37648;BME280;23490;53.656;10.076;2023-09-12T04:45:19;97630.00;;;-145.95;100.00
37648;BME280;23490;53.656;10.076;2023-09-12T04:47:44;97630.00;;;-145.95;100.00
37648;BME280;23490;53.656;10.076;2023-09-12T04:50:10;97658.91;;;-145.95;100.00
37648;BME280;23490;53.656;10.076;2023-09-12T04:52:37;97630.00;;;-145.95;100.00
37648;BME280;23490;53.656;10.076;2023-09-12T04:55:02;97621.75;;;-145.95;100.00
37648;BME280;23490;53.656;10.076;2023-09-12T04:57:29;97642.38;;;-145.95;100.00
37648;BME280;23490;53.656;10.076;2023-09-12T04:59:56;97642.38;;;-145.95;100.00
37648;BME280;23490;53.656;10.076;2023-09-12T05:02:21;97656.84;;;-145.95;100.00
37648;BME280;23490;53.656;10.076;2023-09-12T05:04:47;97679.53;;;-145.95;100.00
37648;BME280;23490;53.656;10.076;2023-09-12T05:07:13;97640.31;;;-145.95;100.00
37648;BME280;23490;53.656;10.076;2023-09-12T05:09:38;97648.56;;;-145.95;100.00
37648;BME280;23490;53.656;10.076;2023-09-12T05:12:04;97654.75;;;-145.95;100.00
37648;BME280;23490;53.656;10.076;2023-09-12T05:14:30;97654.75;;;-145.95;100.00
37648;BME280;23490;53.656;10.076;2023-09-12T05:16:55;97638.25;;;-145.95;100.00
37648;BME280;23490;53.656;10.076;2023-09-12T05:19:21;97658.91;;;-145.95;100.00
37648;BME280;23490;53.656;10.076;2023-09-12T05:21:49;97617.59;;;-145.95;100.00
37648;BME280;23490;53.656;10.076;2023-09-12T05:24:14;97642.38;;;-145.95;100.00
37648;BME280;23490;53.656;10.076;2023-09-12T05:26:40;97613.47;;;-145.95;100.00
37648;BME280;23490;53.656;10.076;2023-09-12T05:29:05;97667.16;;;-145.95;100.00
37648;BME280;23490;53.656;10.076;2023-09-12T05:31:31;97658.91;;;-145.95;100.00
37648;BME280;23490;53.656;10.076;2023-09-12T05:33:56;97671.28;;;-145.95;100.00
37648;BME280;23490;53.656;10.076;2023-09-12T05:36:23;97671.28;;;-145.95;100.00
37648;BME280;23490;53.656;10.076;2023-09-12T05:38:48;97663.03;;;-145.95;100.00
37648;BME280;23490;53.656;10.076;2023-09-12T05:41:14;97609.34;;;-145.95;100.00
37648;BME280;23490;53.656;10.076;2023-09-12T05:43:39;97654.75;;;-145.95;100.00
37648;BME280;23490;53.656;10.076;2023-09-12T05:46:04;97625.88;;;-145.95;100.00
37648;BME280;23490;53.656;10.076;2023-09-12T05:48:30;97696.06;;;-145.95;100.00
37648;BME280;23490;53.656;10.076;2023-09-12T05:50:55;97691.91;;;-145.95;100.00
37648;BME280;23490;53.656;10.076;2023-09-12T05:53:20;97625.88;;;-145.95;100.00
37648;BME280;23490;53.656;10.076;2023-09-12T05:55:46;97687.78;;;-145.95;100.00
37648;BME280;23490;53.656;10.076;2023-09-12T05:58:11;97663.03;;;-145.95;100.00
37648;BME280;23490;53.656;10.076;2023-09-12T06:00:37;97638.25;;;-145.95;100.00
37648;BME280;23490;53.656;10.076;2023-09-12T06:03:03;97601.09;;;-145.95;100.00
37648;BME280;23490;53.656;10.076;2023-09-12T06:05:28;97654.75;;;-145.95;100.00
37648;BME280;23490;53.656;10.076;2023-09-12T06:07:53;97642.38;;;-145.95;100.00
37648;BME280;23490;53.656;10.076;2023-09-12T06:10:19;97621.75;;;-145.95;100.00
37648;BME280;23490;53.656;10.076;2023-09-12T06:12:44;97654.75;;;-145.95;100.00
37648;BME280;23490;53.656;10.076;2023-09-12T06:15:10;97671.28;;;-145.95;100.00
37648;BME280;23490;53.656;10.076;2023-09-12T06:17:35;97689.84;;;-145.95;100.00
37648;BME280;23490;53.656;10.076;2023-09-12T06:20:00;97667.16;;;-145.95;100.00
37648;BME280;23490;53.656;10.076;2023-09-12T06:22:26;97630.00;;;-145.95;100.00
37648;BME280;23490;53.656;10.076;2023-09-12T06:24:51;97654.75;;;-145.95;100.00
37648;BME280;23490;53.656;10.076;2023-09-12T06:27:17;97617.59;;;-145.95;100.00
37648;BME280;23490;53.656;10.076;2023-09-12T06:29:47;97601.09;;;-145.95;100.00
37648;BME280;23490;53.656;10.076;2023-09-12T06:32:14;97642.38;;;-145.95;100.00
37648;BME280;23490;53.656;10.076;2023-09-12T06:34:40;97576.31;;;-145.95;100.00
37648;BME280;23490;53.656;10.076;2023-09-12T06:37:06;97596.97;;;-145.95;100.00
37648;BME280;23490;53.656;10.076;2023-09-12T06:39:31;97586.66;;;-145.95;100.00
37648;BME280;23490;53.656;10.076;2023-09-12T06:41:56;97621.75;;;-145.95;100.00
37648;BME280;23490;53.656;10.076;2023-09-12T06:44:22;97617.59;;;-145.95;100.00
37648;BME280;23490;53.656;10.076;2023-09-12T06:46:47;97636.19;;;-145.95;100.00
37648;BME280;23490;53.656;10.076;2023-09-12T06:49:13;97658.91;;;-145.95;100.00
37648;BME280;23490;53.656;10.076;2023-09-12T06:51:38;97634.13;;;-145.95;100.00
37648;BME280;23490;53.656;10.076;2023-09-12T06:54:03;97584.59;;;-145.95;100.00
37648;BME280;23490;53.656;10.076;2023-09-12T06:56:29;97586.66;;;-145.95;100.00
37648;BME280;23490;53.656;10.076;2023-09-12T06:58:54;97654.75;;;-145.95;100.00
37648;BME280;23490;53.656;10.076;2023-09-12T07:01:20;97572.19;;;-145.95;100.00
37648;BME280;23490;53.656;10.076;2023-09-12T07:03:45;97547.44;;;-145.95;100.00
37648;BME280;23490;53.656;10.076;2023-09-12T07:06:11;97596.97;;;-145.95;100.00
37648;BME280;23490;53.656;10.076;2023-09-12T07:08:39;97555.69;;;-145.95;100.00
37648;BME280;23490;53.656;10.076;2023-09-12T07:11:05;97568.06;;;-145.95;100.00
37648;BME280;23490;53.656;10.076;2023-09-12T07:13:34;97543.31;;;-145.95;100.00
37648;BME280;23490;53.656;10.076;2023-09-12T07:15:59;97561.88;;;-145.95;100.00
37648;BME280;23490;53.656;10.076;2023-09-12T07:18:25;97580.47;;;-145.95;100.00
37648;BME280;23490;53.656;10.076;2023-09-12T07:21:02;97584.59;;;-145.95;100.00
37648;BME280;23490;53.656;10.076;2023-09-12T07:23:28;97561.88;;;-145.95;100.00
37648;BME280;23490;53.656;10.076;2023-09-12T07:25:54;97551.56;;;-145.95;100.00
37648;BME280;23490;53.656;10.076;2023-09-12T07:28:25;97568.06;;;-145.95;100.00
37648;BME280;23490;53.656;10.076;2023-09-12T07:30:51;97561.88;;;-145.95;100.00
37648;BME280;23490;53.656;10.076;2023-09-12T07:33:16;97555.69;;;-145.95;100.00
37648;BME280;23490;53.656;10.076;2023-09-12T07:35:42;97547.44;;;-145.95;100.00
37648;BME280;23490;53.656;10.076;2023-09-12T07:38:08;97539.19;;;-145.95;100.00
37648;BME280;23490;53.656;10.076;2023-09-12T07:40:33;97543.31;;;-145.95;100.00
37648;BME280;23490;53.656;10.076;2023-09-12T07:42:58;97535.03;;;-145.95;100.00
37648;BME280;23490;53.656;10.076;2023-09-12T07:45:24;97514.41;;;-145.95;100.00
37648;BME280;23490;53.656;10.076;2023-09-12T07:47:52;97493.75;;;-145.95;100.00
37648;BME280;23490;53.656;10.076;2023-09-12T07:50:17;97518.53;;;-145.95;100.00
37648;BME280;23490;53.656;10.076;2023-09-12T07:52:43;97508.22;;;-145.95;100.00
37648;BME280;23490;53.656;10.076;2023-09-12T07:55:08;97568.06;;;-145.95;100.00
37648;BME280;23490;53.656;10.076;2023-09-12T07:57:34;97514.41;;;-145.95;100.00
37648;BME280;23490;53.656;10.076;2023-09-12T08:00:00;97512.34;;;-145.95;100.00
37648;BME280;23490;53.656;10.076;2023-09-12T08:02:26;97497.88;;;-145.95;100.00
37648;BME280;23490;53.656;10.076;2023-09-12T08:04:51;97489.63;;;-145.95;100.00
37648;BME280;23490;53.656;10.076;2023-09-12T08:07:18;97518.53;;;-145.95;100.00
37648;BME280;23490;53.656;10.076;2023-09-12T08:09:49;97539.19;;;-145.95;100.00
37648;BME280;23490;53.656;10.076;2023-09-12T08:12:16;97526.78;;;-145.95;100.00
37648;BME280;23490;53.656;10.076;2023-09-12T08:14:41;97506.16;;;-145.95;100.00
37648;BME280;23490;53.656;10.076;2023-09-12T08:17:06;97502.03;;;-145.95;100.00
37648;BME280;23490;53.656;10.076;2023-09-12T08:19:32;97493.75;;;-145.95;100.00
37648;BME280;23490;53.656;10.076;2023-09-12T08:21:57;97508.22;;;-145.95;100.00
37648;BME280;23490;53.656;10.076;2023-09-12T08:24:22;97433.91;;;-145.95;100.00
37648;BME280;23490;53.656;10.076;2023-09-12T08:26:48;97435.97;;;-145.95;100.00
37648;BME280;23490;53.656;10.076;2023-09-12T08:29:13;97386.44;;;-145.95;100.00
37648;BME280;23490;53.656;10.076;2023-09-12T08:31:38;97353.41;;;-145.95;100.00
37648;BME280;23490;53.656;10.076;2023-09-12T08:34:04;97347.22;;;-145.95;100.00
37648;BME280;23490;53.656;10.076;2023-09-12T08:36:29;97260.53;;;-145.95;100.00
37648;BME280;23490;53.656;10.076;2023-09-12T08:38:55;97299.75;;;-145.95;100.00
37648;BME280;23490;53.656;10.076;2023-09-12T08:41:20;97254.34;;;-145.95;100.00
37648;BME280;23490;53.656;10.076;2023-09-12T08:43:47;97225.44;;;-145.95;99.40
37648;BME280;23490;53.656;10.076;2023-09-12T08:46:14;97246.09;;;-145.95;97.59
37648;BME280;23490;53.656;10.076;2023-09-12T08:48:41;97235.75;;;-145.95;97.42
37648;BME280;23490;53.656;10.076;2023-09-12T08:51:08;97184.16;;;-145.95;98.41
37648;BME280;23490;53.656;10.076;2023-09-12T08:53:35;97254.34;;;-145.95;95.08
37648;BME280;23490;53.656;10.076;2023-09-12T08:56:01;97171.78;;;-145.95;93.81
37648;BME280;23490;53.656;10.076;2023-09-12T08:58:31;97208.94;;;-145.95;95.45
37648;BME280;23490;53.656;10.076;2023-09-12T09:00:57;97126.38;;;-145.95;94.50
37648;BME280;23490;53.656;10.076;2023-09-12T09:03:24;97085.09;;;-145.95;91.56
37648;BME280;23490;53.656;10.076;2023-09-12T09:05:51;97151.16;;;-145.95;90.07
37648;BME280;23490;53.656;10.076;2023-09-12T09:08:18;97047.94;;;-145.95;88.36
37648;BME280;23490;53.656;10.076;2023-09-12T09:10:57;97171.78;;;-145.95;91.54
37648;BME280;23490;53.656;10.076;2023-09-12T09:13:24;97190.38;;;-145.95;90.40
37648;BME280;23490;53.656;10.076;2023-09-12T09:16:09;97192.44;;;-145.95;92.17
37648;BME280;23490;53.656;10.076;2023-09-12T09:18:53;97192.44;;;-145.95;92.42
37648;BME280;23490;53.656;10.076;2023-09-12T09:21:20;97200.69;;;-145.95;93.62
37648;BME280;23490;53.656;10.076;2023-09-12T09:23:47;97175.91;;;-145.95;91.62
37648;BME280;23490;53.656;10.076;2023-09-12T09:26:13;97188.28;;;-145.95;93.61
37648;BME280;23490;53.656;10.076;2023-09-12T09:28:38;97252.28;;;-145.95;92.94
37648;BME280;23490;53.656;10.076;2023-09-12T09:31:11;97225.44;;;-145.95;91.93
37648;BME280;23490;53.656;10.076;2023-09-12T09:33:37;97221.31;;;-145.95;93.08
37648;BME280;23490;53.656;10.076;2023-09-12T09:36:04;97279.09;;;-145.95;92.06
37648;BME280;23490;53.656;10.076;2023-09-12T09:38:30;97215.13;;;-145.95;92.80
37648;BME280;23490;53.656;10.076;2023-09-12T09:40:56;97217.19;;;-145.95;92.34
37648;BME280;23490;53.656;10.076;2023-09-12T09:43:22;97254.34;;;-145.95;91.68
37648;BME280;23490;53.656;10.076;2023-09-12T09:45:48;97248.16;;;-145.95;90.80
37648;BME280;23490;53.656;10.076;2023-09-12T09:48:21;97213.06;;;-145.95;92.58
37648;BME280;23490;53.656;10.076;2023-09-12T09:50:47;97192.44;;;-145.95;91.71
37648;BME280;23490;53.656;10.076;2023-09-12T09:53:13;97118.13;;;-145.95;90.94
37648;BME280;23490;53.656;10.076;2023-09-12T09:55:38;97072.72;;;-145.95;90.24
37648;BME280;23490;53.656;10.076;2023-09-12T09:58:07;97114.00;;;-145.95;84.84
37648;BME280;23490;53.656;10.076;2023-09-12T10:00:34;97064.47;;;-145.95;86.66
37648;BME280;23490;53.656;10.076;2023-09-12T10:03:04;97056.22;;;-145.95;88.03
37648;BME280;23490;53.656;10.076;2023-09-12T10:05:37;97047.94;;;-145.95;86.87
37648;BME280;23490;53.656;10.076;2023-09-12T10:08:02;97052.09;;;-145.95;85.35
37648;BME280;23490;53.656;10.076;2023-09-12T10:10:31;97080.97;;;-145.95;83.01
37648;BME280;23490;53.656;10.076;2023-09-12T10:12:58;97159.41;;;-145.95;83.63
37648;BME280;23490;53.656;10.076;2023-09-12T10:15:28;97151.16;;;-145.95;87.14
37648;BME280;23490;53.656;10.076;2023-09-12T10:18:00;97180.03;;;-145.95;88.01
37648;BME280;23490;53.656;10.076;2023-09-12T10:20:43;97208.94;;;-145.95;87.53
37648;BME280;23490;53.656;10.076;2023-09-12T10:24:05;97184.16;;;-145.95;87.68
37648;BME280;23490;53.656;10.076;2023-09-12T10:26:10;97155.28;;;-145.95;88.23
37648;BME280;23490;53.656;10.076;2023-09-12T10:28:37;97171.78;;;-145.95;85.82
37648;BME280;23490;53.656;10.076;2023-09-12T10:31:04;97213.06;;;-145.95;86.47
37648;BME280;23490;53.656;10.076;2023-09-12T10:33:31;97175.91;;;-145.95;87.44
37648;BME280;23490;53.656;10.076;2023-09-12T10:35:57;97184.16;;;-145.95;85.85
37648;BME280;23490;53.656;10.076;2023-09-12T10:38:26;97229.56;;;-145.95;86.80
37648;BME280;23490;53.656;10.076;2023-09-12T10:40:53;97126.38;;;-145.95;87.23
37648;BME280;23490;53.656;10.076;2023-09-12T10:43:20;97200.69;;;-145.95;87.84
37648;BME280;23490;53.656;10.076;2023-09-12T10:45:48;97204.81;;;-145.95;87.13
37648;BME280;23490;53.656;10.076;2023-09-12T10:48:14;97244.03;;;-145.95;88.03
37648;BME280;23490;53.656;10.076;2023-09-12T10:50:40;97258.47;;;-145.95;87.08
37648;BME280;23490;53.656;10.076;2023-09-12T10:53:14;97254.34;;;-145.95;88.37
37648;BME280;23490;53.656;10.076;2023-09-12T10:55:40;97206.88;;;-145.95;88.52
37648;BME280;23490;53.656;10.076;2023-09-12T10:58:08;97225.44;;;-145.95;88.30
37648;BME280;23490;53.656;10.076;2023-09-12T11:00:35;97241.97;;;-145.95;87.00
37648;BME280;23490;53.656;10.076;2023-09-12T11:05:54;97250.22;;;-145.95;86.50
37648;BME280;23490;53.656;10.076;2023-09-12T11:08:20;97254.34;;;-145.95;86.89
37648;BME280;23490;53.656;10.076;2023-09-12T11:11:17;97204.81;;;-145.95;88.11
37648;BME280;23490;53.656;10.076;2023-09-12T11:13:46;97279.09;;;-145.95;88.69
37648;BME280;23490;53.656;10.076;2023-09-12T11:16:16;97246.09;;;-145.95;89.49
37648;BME280;23490;53.656;10.076;2023-09-12T11:19:14;97229.56;;;-145.95;89.96
37648;BME280;23490;53.656;10.076;2023-09-12T11:21:44;97295.63;;;-145.95;90.09
37648;BME280;23490;53.656;10.076;2023-09-12T11:24:10;97345.16;;;-145.95;90.14
37648;BME280;23490;53.656;10.076;2023-09-12T11:26:55;97305.94;;;-145.95;90.37
37648;BME280;23490;53.656;10.076;2023-09-12T11:29:36;97322.44;;;-145.95;91.52
37648;BME280;23490;53.656;10.076;2023-09-12T11:32:02;97305.94;;;-145.95;90.82
37648;BME280;23490;53.656;10.076;2023-09-12T11:34:30;97281.16;;;-145.95;91.11
37648;BME280;23490;53.656;10.076;2023-09-12T11:37:01;97295.63;;;-145.95;91.09
37648;BME280;23490;53.656;10.076;2023-09-12T11:39:30;97274.97;;;-145.95;91.52
37648;BME280;23490;53.656;10.076;2023-09-12T11:41:57;97241.97;;;-145.95;91.39
37648;BME280;23490;53.656;10.076;2023-09-12T11:44:23;97237.81;;;-145.95;90.08
37648;BME280;23490;53.656;10.076;2023-09-12T11:46:49;97274.97;;;-145.95;90.12
37648;BME280;23490;53.656;10.076;2023-09-12T11:49:16;97299.75;;;-145.95;91.64
37648;BME280;23490;53.656;10.076;2023-09-12T11:51:50;97295.63;;;-145.95;91.51
37648;BME280;23490;53.656;10.076;2023-09-12T11:54:18;97314.19;;;-145.95;91.57
37648;BME280;23490;53.656;10.076;2023-09-12T11:56:47;97285.31;;;-145.95;92.67
37648;BME280;23490;53.656;10.076;2023-09-12T11:59:13;97316.25;;;-145.95;92.79
37648;BME280;23490;53.656;10.076;2023-09-12T12:01:39;97314.19;;;-145.95;92.98
37648;BME280;23490;53.656;10.076;2023-09-12T12:04:05;97274.97;;;-145.95;94.74
37648;BME280;23490;53.656;10.076;2023-09-12T12:06:32;97250.22;;;-145.95;94.46
37648;BME280;23490;53.656;10.076;2023-09-12T12:08:58;97266.72;;;-145.95;93.51
37648;BME280;23490;53.656;10.076;2023-09-12T12:11:27;97287.38;;;-145.95;93.78
37648;BME280;23490;53.656;10.076;2023-09-12T12:13:53;97262.59;;;-145.95;93.99
37648;BME280;23490;53.656;10.076;2023-09-12T12:16:19;97266.72;;;-145.95;94.17
37648;BME280;23490;53.656;10.076;2023-09-12T12:18:45;97244.03;;;-145.95;92.22
37648;BME280;23490;53.656;10.076;2023-09-12T12:21:10;97266.72;;;-145.95;93.67
37648;BME280;23490;53.656;10.076;2023-09-12T12:23:36;97270.84;;;-145.95;94.23
37648;BME280;23490;53.656;10.076;2023-09-12T12:26:08;97279.09;;;-145.95;97.04
37648;BME280;23490;53.656;10.076;2023-09-12T12:28:38;97353.41;;;-145.95;94.48